Callaway, Florida
Current Conditions -  °F | °C
As of 6:00 PM on Saturday 20 Dec 2014 (Local Time) from KPAM Reporting Station
Overcast Overcast  
Wind Chill: 55°   Ceiling: 2700
Heat Index: 55°   Visibility: 10mi
Dew Point: 52°   Wind: 8mph
Humidity: 88%   Direction: 40°NE
Pressure: 30.09"   Gusts: NA
Location:  30.1957°N, 85.4833°W
Report Text: KPAM 210000Z AUTO 04007KT 10SM OVC027 13/11 A3009 RMK AO2 RAE2307B2341DZB2307E2310B2334E2341 $
Loading
Personal Weather Stations






























Interactive Weather Map New forecast layout! Learn more

10-Day Weather Forecast

Advertisements
Track Severe Weather on mobile